sensor_id;sensor_type;location;lat;lon;timestamp;P1;durP1;ratioP1;P2;durP2;ratioP2
38935;SDS011;66589;47.458;9.644;2023-02-28T00:01:04;5.50;;;1.88;;
38935;SDS011;66589;47.458;9.644;2023-02-28T00:03:30;6.07;;;1.98;;
38935;SDS011;66589;47.458;9.644;2023-02-28T00:05:59;5.00;;;1.70;;
38935;SDS011;66589;47.458;9.644;2023-02-28T00:08:29;4.70;;;1.83;;
38935;SDS011;66589;47.458;9.644;2023-02-28T00:10:54;4.30;;;1.50;;
38935;SDS011;66589;47.458;9.644;2023-02-28T00:13:20;4.55;;;1.75;;
38935;SDS011;66589;47.458;9.644;2023-02-28T00:15:46;5.63;;;1.98;;
38935;SDS011;66589;47.458;9.644;2023-02-28T00:18:11;5.28;;;1.95;;
38935;SDS011;66589;47.458;9.644;2023-02-28T00:20:38;4.95;;;1.88;;
38935;SDS011;66589;47.458;9.644;2023-02-28T00:23:04;4.20;;;1.52;;
38935;SDS011;66589;47.458;9.644;2023-02-28T00:25:29;5.38;;;2.03;;
38935;SDS011;66589;47.458;9.644;2023-02-28T00:27:55;4.82;;;1.73;;
38935;SDS011;66589;47.458;9.644;2023-02-28T00:30:22;4.38;;;2.10;;
38935;SDS011;66589;47.458;9.644;2023-02-28T00:32:48;4.05;;;1.80;;
38935;SDS011;66589;47.458;9.644;2023-02-28T00:35:15;7.22;;;1.73;;
38935;SDS011;66589;47.458;9.644;2023-02-28T00:37:41;4.95;;;1.60;;
38935;SDS011;66589;47.458;9.644;2023-02-28T00:40:07;5.05;;;1.95;;
38935;SDS011;66589;47.458;9.644;2023-02-28T00:42:34;5.38;;;1.90;;
38935;SDS011;66589;47.458;9.644;2023-02-28T00:45:00;5.07;;;1.90;;
38935;SDS011;66589;47.458;9.644;2023-02-28T00:47:28;4.85;;;2.00;;
38935;SDS011;66589;47.458;9.644;2023-02-28T00:49:54;4.47;;;1.70;;
38935;SDS011;66589;47.458;9.644;2023-02-28T00:52:19;5.95;;;2.38;;
38935;SDS011;66589;47.458;9.644;2023-02-28T00:54:46;6.20;;;2.17;;
38935;SDS011;66589;47.458;9.644;2023-02-28T00:57:12;5.50;;;2.00;;
38935;SDS011;66589;47.458;9.644;2023-02-28T00:59:37;5.10;;;1.90;;
38935;SDS011;66589;47.458;9.644;2023-02-28T01:02:03;5.78;;;1.92;;
38935;SDS011;66589;47.458;9.644;2023-02-28T01:04:29;5.30;;;2.22;;
38935;SDS011;66589;47.458;9.644;2023-02-28T01:06:54;5.97;;;1.70;;
38935;SDS011;66589;47.458;9.644;2023-02-28T01:09:20;5.82;;;2.17;;
38935;SDS011;66589;47.458;9.644;2023-02-28T01:11:45;6.85;;;2.20;;
38935;SDS011;66589;47.458;9.644;2023-02-28T01:14:12;6.97;;;2.03;;
38935;SDS011;66589;47.458;9.644;2023-02-28T01:16:39;6.88;;;2.30;;
38935;SDS011;66589;47.458;9.644;2023-02-28T01:19:05;5.30;;;2.05;;
38935;SDS011;66589;47.458;9.644;2023-02-28T01:21:31;5.32;;;2.13;;
38935;SDS011;66589;47.458;9.644;2023-02-28T01:23:57;5.93;;;2.03;;
38935;SDS011;66589;47.458;9.644;2023-02-28T01:26:23;7.00;;;2.42;;
38935;SDS011;66589;47.458;9.644;2023-02-28T01:28:50;5.63;;;1.98;;
38935;SDS011;66589;47.458;9.644;2023-02-28T01:31:17;6.57;;;2.20;;
38935;SDS011;66589;47.458;9.644;2023-02-28T01:33:44;5.78;;;2.22;;
38935;SDS011;66589;47.458;9.644;2023-02-28T01:36:14;6.35;;;2.42;;
38935;SDS011;66589;47.458;9.644;2023-02-28T01:38:41;6.50;;;2.00;;
38935;SDS011;66589;47.458;9.644;2023-02-28T01:41:08;6.20;;;2.33;;
38935;SDS011;66589;47.458;9.644;2023-02-28T01:46:09;5.53;;;2.30;;
38935;SDS011;66589;47.458;9.644;2023-02-28T01:48:40;6.15;;;2.30;;
38935;SDS011;66589;47.458;9.644;2023-02-28T01:51:15;5.13;;;1.90;;
38935;SDS011;66589;47.458;9.644;2023-02-28T01:53:52;7.22;;;2.20;;
38935;SDS011;66589;47.458;9.644;2023-02-28T01:56:31;6.07;;;2.45;;
38935;SDS011;66589;47.458;9.644;2023-02-28T01:59:01;5.13;;;2.00;;
38935;SDS011;66589;47.458;9.644;2023-02-28T02:01:28;6.43;;;2.00;;
38935;SDS011;66589;47.458;9.644;2023-02-28T02:03:56;5.80;;;2.42;;
38935;SDS011;66589;47.458;9.644;2023-02-28T02:06:30;4.93;;;2.15;;
38935;SDS011;66589;47.458;9.644;2023-02-28T02:08:59;8.23;;;2.30;;
38935;SDS011;66589;47.458;9.644;2023-02-28T02:11:25;6.97;;;2.17;;
38935;SDS011;66589;47.458;9.644;2023-02-28T02:16:39;6.35;;;2.40;;
38935;SDS011;66589;47.458;9.644;2023-02-28T02:39:44;6.65;;;2.30;;
38935;SDS011;66589;47.458;9.644;2023-02-28T02:42:31;5.97;;;2.15;;
38935;SDS011;66589;47.458;9.644;2023-02-28T02:47:46;5.85;;;2.72;;
38935;SDS011;66589;47.458;9.644;2023-02-28T02:50:15;5.85;;;2.40;;
38935;SDS011;66589;47.458;9.644;2023-02-28T02:52:55;5.40;;;2.40;;
38935;SDS011;66589;47.458;9.644;2023-02-28T02:55:24;7.07;;;2.35;;
38935;SDS011;66589;47.458;9.644;2023-02-28T02:57:55;6.47;;;2.80;;
38935;SDS011;66589;47.458;9.644;2023-02-28T03:00:29;6.30;;;2.53;;
38935;SDS011;66589;47.458;9.644;2023-02-28T03:02:59;6.70;;;2.40;;
38935;SDS011;66589;47.458;9.644;2023-02-28T03:05:28;5.70;;;2.50;;
38935;SDS011;66589;47.458;9.644;2023-02-28T03:07:57;5.93;;;2.25;;
38935;SDS011;66589;47.458;9.644;2023-02-28T03:10:33;5.78;;;2.25;;
38935;SDS011;66589;47.458;9.644;2023-02-28T03:18:36;5.47;;;2.33;;
38935;SDS011;66589;47.458;9.644;2023-02-28T03:21:11;5.75;;;2.60;;
38935;SDS011;66589;47.458;9.644;2023-02-28T03:26:34;6.60;;;2.58;;
38935;SDS011;66589;47.458;9.644;2023-02-28T03:29:20;5.18;;;2.35;;
38935;SDS011;66589;47.458;9.644;2023-02-28T03:31:58;7.15;;;2.40;;
38935;SDS011;66589;47.458;9.644;2023-02-28T03:34:40;5.88;;;2.45;;
38935;SDS011;66589;47.458;9.644;2023-02-28T03:37:12;6.32;;;2.22;;
38935;SDS011;66589;47.458;9.644;2023-02-28T03:40:05;5.88;;;2.30;;
38935;SDS011;66589;47.458;9.644;2023-02-28T03:42:31;5.40;;;2.30;;
38935;SDS011;66589;47.458;9.644;2023-02-28T03:45:02;5.10;;;2.20;;
38935;SDS011;66589;47.458;9.644;2023-02-28T03:47:35;6.10;;;2.38;;
38935;SDS011;66589;47.458;9.644;2023-02-28T03:50:10;4.68;;;2.38;;
38935;SDS011;66589;47.458;9.644;2023-02-28T03:53:30;5.35;;;2.40;;
38935;SDS011;66589;47.458;9.644;2023-02-28T03:56:08;5.28;;;2.33;;
38935;SDS011;66589;47.458;9.644;2023-02-28T03:58:41;5.20;;;2.10;;
38935;SDS011;66589;47.458;9.644;2023-02-28T04:04:03;5.38;;;2.53;;
38935;SDS011;66589;47.458;9.644;2023-02-28T04:06:30;6.45;;;2.45;;
38935;SDS011;66589;47.458;9.644;2023-02-28T04:08:57;7.53;;;2.78;;
38935;SDS011;66589;47.458;9.644;2023-02-28T04:11:32;7.50;;;3.15;;
38935;SDS011;66589;47.458;9.644;2023-02-28T04:13:58;5.40;;;2.20;;
38935;SDS011;66589;47.458;9.644;2023-02-28T04:16:24;6.18;;;2.60;;
38935;SDS011;66589;47.458;9.644;2023-02-28T04:18:49;6.00;;;2.53;;
38935;SDS011;66589;47.458;9.644;2023-02-28T04:21:15;7.05;;;2.17;;
38935;SDS011;66589;47.458;9.644;2023-02-28T04:23:40;4.22;;;2.28;;
38935;SDS011;66589;47.458;9.644;2023-02-28T04:26:06;5.25;;;2.17;;
38935;SDS011;66589;47.458;9.644;2023-02-28T04:28:32;5.15;;;2.50;;
38935;SDS011;66589;47.458;9.644;2023-02-28T04:31:02;5.88;;;2.45;;
38935;SDS011;66589;47.458;9.644;2023-02-28T04:33:29;7.43;;;2.40;;
38935;SDS011;66589;47.458;9.644;2023-02-28T04:36:06;5.18;;;2.33;;
38935;SDS011;66589;47.458;9.644;2023-02-28T04:38:37;5.32;;;2.30;;
38935;SDS011;66589;47.458;9.644;2023-02-28T04:41:04;6.03;;;2.35;;
38935;SDS011;66589;47.458;9.644;2023-02-28T04:43:30;6.15;;;2.50;;
38935;SDS011;66589;47.458;9.644;2023-02-28T04:45:56;7.90;;;3.00;;
38935;SDS011;66589;47.458;9.644;2023-02-28T04:48:25;6.85;;;2.78;;
38935;SDS011;66589;47.458;9.644;2023-02-28T04:50:53;7.05;;;3.03;;
38935;SDS011;66589;47.458;9.644;2023-02-28T04:53:18;7.25;;;2.70;;
38935;SDS011;66589;47.458;9.644;2023-02-28T04:55:45;6.60;;;2.33;;
38935;SDS011;66589;47.458;9.644;2023-02-28T04:58:11;6.93;;;2.60;;
38935;SDS011;66589;47.458;9.644;2023-02-28T05:00:39;7.35;;;2.95;;
38935;SDS011;66589;47.458;9.644;2023-02-28T05:03:04;6.35;;;2.80;;
38935;SDS011;66589;47.458;9.644;2023-02-28T05:05:30;5.57;;;2.63;;
38935;SDS011;66589;47.458;9.644;2023-02-28T05:07:56;7.03;;;2.97;;
38935;SDS011;66589;47.458;9.644;2023-02-28T05:10:22;5.97;;;2.58;;
38935;SDS011;66589;47.458;9.644;2023-02-28T05:12:48;7.07;;;2.75;;
38935;SDS011;66589;47.458;9.644;2023-02-28T05:15:14;7.47;;;2.85;;
38935;SDS011;66589;47.458;9.644;2023-02-28T05:17:41;6.72;;;2.70;;
38935;SDS011;66589;47.458;9.644;2023-02-28T05:20:07;5.68;;;2.70;;
38935;SDS011;66589;47.458;9.644;2023-02-28T05:22:36;5.35;;;2.35;;
38935;SDS011;66589;47.458;9.644;2023-02-28T05:25:13;4.65;;;2.20;;
38935;SDS011;66589;47.458;9.644;2023-02-28T05:27:42;4.75;;;2.38;;
38935;SDS011;66589;47.458;9.644;2023-02-28T05:30:08;5.60;;;2.45;;
38935;SDS011;66589;47.458;9.644;2023-02-28T05:32:38;7.32;;;2.63;;
38935;SDS011;66589;47.458;9.644;2023-02-28T05:35:07;7.35;;;2.90;;
38935;SDS011;66589;47.458;9.644;2023-02-28T05:37:34;7.07;;;2.78;;
38935;SDS011;66589;47.458;9.644;2023-02-28T05:40:01;7.68;;;2.75;;
38935;SDS011;66589;47.458;9.644;2023-02-28T05:42:30;7.80;;;3.15;;
38935;SDS011;66589;47.458;9.644;2023-02-28T05:44:56;5.82;;;2.55;;
38935;SDS011;66589;47.458;9.644;2023-02-28T05:47:25;5.72;;;2.80;;
38935;SDS011;66589;47.458;9.644;2023-02-28T05:49:51;6.55;;;2.65;;
38935;SDS011;66589;47.458;9.644;2023-02-28T05:52:17;6.78;;;2.45;;
38935;SDS011;66589;47.458;9.644;2023-02-28T05:54:42;5.88;;;2.75;;
38935;SDS011;66589;47.458;9.644;2023-02-28T05:57:08;7.20;;;2.63;;
38935;SDS011;66589;47.458;9.644;2023-02-28T05:59:34;6.60;;;2.72;;
38935;SDS011;66589;47.458;9.644;2023-02-28T06:02:00;5.60;;;2.63;;
38935;SDS011;66589;47.458;9.644;2023-02-28T06:04:25;5.55;;;2.72;;
38935;SDS011;66589;47.458;9.644;2023-02-28T06:06:51;6.13;;;2.53;;
38935;SDS011;66589;47.458;9.644;2023-02-28T06:09:17;5.32;;;2.50;;
38935;SDS011;66589;47.458;9.644;2023-02-28T06:11:44;7.15;;;2.60;;
38935;SDS011;66589;47.458;9.644;2023-02-28T06:14:16;5.93;;;2.50;;
38935;SDS011;66589;47.458;9.644;2023-02-28T06:16:43;8.70;;;2.80;;
38935;SDS011;66589;47.458;9.644;2023-02-28T06:19:09;8.07;;;3.10;;
38935;SDS011;66589;47.458;9.644;2023-02-28T06:21:35;6.13;;;2.95;;
38935;SDS011;66589;47.458;9.644;2023-02-28T06:24:01;8.80;;;3.15;;
38935;SDS011;66589;47.458;9.644;2023-02-28T06:26:28;7.55;;;3.10;;
38935;SDS011;66589;47.458;9.644;2023-02-28T06:28:54;10.63;;;3.15;;
38935;SDS011;66589;47.458;9.644;2023-02-28T06:31:20;7.63;;;3.03;;
38935;SDS011;66589;47.458;9.644;2023-02-28T06:33:47;8.93;;;3.25;;
38935;SDS011;66589;47.458;9.644;2023-02-28T06:36:13;7.78;;;2.70;;
38935;SDS011;66589;47.458;9.644;2023-02-28T06:38:41;7.15;;;2.83;;
38935;SDS011;66589;47.458;9.644;2023-02-28T06:41:07;6.07;;;2.95;;
38935;SDS011;66589;47.458;9.644;2023-02-28T06:43:37;5.75;;;2.67;;
38935;SDS011;66589;47.458;9.644;2023-02-28T06:46:07;9.98;;;3.10;;
38935;SDS011;66589;47.458;9.644;2023-02-28T06:48:35;7.72;;;3.35;;
38935;SDS011;66589;47.458;9.644;2023-02-28T06:51:08;7.38;;;2.95;;
38935;SDS011;66589;47.458;9.644;2023-02-28T06:53:36;6.03;;;2.72;;
38935;SDS011;66589;47.458;9.644;2023-02-28T06:56:06;7.47;;;2.95;;
38935;SDS011;66589;47.458;9.644;2023-02-28T06:58:33;8.98;;;3.50;;
38935;SDS011;66589;47.458;9.644;2023-02-28T07:00:59;7.20;;;3.03;;
38935;SDS011;66589;47.458;9.644;2023-02-28T07:03:25;8.13;;;2.80;;
38935;SDS011;66589;47.458;9.644;2023-02-28T07:05:50;6.13;;;2.90;;
38935;SDS011;66589;47.458;9.644;2023-02-28T07:08:16;9.05;;;3.03;;
38935;SDS011;66589;47.458;9.644;2023-02-28T07:10:42;8.63;;;2.95;;
38935;SDS011;66589;47.458;9.644;2023-02-28T07:13:08;9.55;;;3.42;;
38935;SDS011;66589;47.458;9.644;2023-02-28T07:15:35;8.48;;;3.30;;
38935;SDS011;66589;47.458;9.644;2023-02-28T07:18:01;9.40;;;3.10;;
38935;SDS011;66589;47.458;9.644;2023-02-28T07:20:27;11.85;;;3.70;;
38935;SDS011;66589;47.458;9.644;2023-02-28T07:22:52;11.40;;;3.50;;
38935;SDS011;66589;47.458;9.644;2023-02-28T07:25:22;12.48;;;3.60;;
38935;SDS011;66589;47.458;9.644;2023-02-28T07:27:48;8.52;;;2.90;;
38935;SDS011;66589;47.458;9.644;2023-02-28T07:30:14;7.70;;;3.22;;
38935;SDS011;66589;47.458;9.644;2023-02-28T07:32:40;6.35;;;3.20;;
38935;SDS011;66589;47.458;9.644;2023-02-28T07:35:06;7.43;;;3.15;;
38935;SDS011;66589;47.458;9.644;2023-02-28T07:37:32;9.60;;;2.83;;
38935;SDS011;66589;47.458;9.644;2023-02-28T07:40:02;10.65;;;3.00;;
38935;SDS011;66589;47.458;9.644;2023-02-28T07:42:33;10.98;;;3.08;;
38935;SDS011;66589;47.458;9.644;2023-02-28T07:45:02;15.25;;;4.40;;
38935;SDS011;66589;47.458;9.644;2023-02-28T07:47:31;7.95;;;3.72;;
38935;SDS011;66589;47.458;9.644;2023-02-28T07:49:57;8.38;;;3.80;;
38935;SDS011;66589;47.458;9.644;2023-02-28T07:52:23;9.15;;;3.42;;
38935;SDS011;66589;47.458;9.644;2023-02-28T07:54:49;6.78;;;3.33;;
38935;SDS011;66589;47.458;9.644;2023-02-28T07:57:16;7.03;;;3.40;;
38935;SDS011;66589;47.458;9.644;2023-02-28T07:59:42;7.05;;;2.97;;
38935;SDS011;66589;47.458;9.644;2023-02-28T08:02:14;9.98;;;3.47;;
38935;SDS011;66589;47.458;9.644;2023-02-28T08:04:41;9.85;;;3.47;;
38935;SDS011;66589;47.458;9.644;2023-02-28T08:07:06;8.80;;;3.35;;
38935;SDS011;66589;47.458;9.644;2023-02-28T08:09:32;9.63;;;3.50;;
38935;SDS011;66589;47.458;9.644;2023-02-28T08:11:59;9.35;;;3.45;;
38935;SDS011;66589;47.458;9.644;2023-02-28T08:14:24;5.93;;;3.00;;
38935;SDS011;66589;47.458;9.644;2023-02-28T08:16:50;6.68;;;3.28;;
38935;SDS011;66589;47.458;9.644;2023-02-28T08:19:16;7.95;;;2.85;;
38935;SDS011;66589;47.458;9.644;2023-02-28T08:21:41;8.82;;;3.50;;
38935;SDS011;66589;47.458;9.644;2023-02-28T08:24:07;6.68;;;3.40;;
38935;SDS011;66589;47.458;9.644;2023-02-28T08:26:33;8.85;;;3.40;;
38935;SDS011;66589;47.458;9.644;2023-02-28T08:28:58;8.10;;;3.65;;
38935;SDS011;66589;47.458;9.644;2023-02-28T08:31:24;6.47;;;3.40;;
38935;SDS011;66589;47.458;9.644;2023-02-28T08:33:50;9.65;;;3.50;;
38935;SDS011;66589;47.458;9.644;2023-02-28T08:36:18;7.03;;;3.10;;
38935;SDS011;66589;47.458;9.644;2023-02-28T08:38:45;9.30;;;3.80;;
38935;SDS011;66589;47.458;9.644;2023-02-28T08:41:11;6.30;;;3.53;;
38935;SDS011;66589;47.458;9.644;2023-02-28T08:43:37;7.13;;;3.55;;
38935;SDS011;66589;47.458;9.644;2023-02-28T08:46:04;8.52;;;3.38;;
38935;SDS011;66589;47.458;9.644;2023-02-28T08:48:31;5.53;;;3.03;;
38935;SDS011;66589;47.458;9.644;2023-02-28T08:51:02;12.07;;;3.92;;
38935;SDS011;66589;47.458;9.644;2023-02-28T08:53:30;11.07;;;3.60;;
38935;SDS011;66589;47.458;9.644;2023-02-28T08:55:57;7.85;;;3.65;;
38935;SDS011;66589;47.458;9.644;2023-02-28T08:58:24;7.47;;;3.35;;
38935;SDS011;66589;47.458;9.644;2023-02-28T09:00:50;8.20;;;3.13;;
38935;SDS011;66589;47.458;9.644;2023-02-28T09:03:16;7.78;;;3.30;;
38935;SDS011;66589;47.458;9.644;2023-02-28T09:05:51;6.20;;;2.95;;
38935;SDS011;66589;47.458;9.644;2023-02-28T09:08:18;7.25;;;3.30;;
38935;SDS011;66589;47.458;9.644;2023-02-28T09:10:44;9.25;;;3.67;;
38935;SDS011;66589;47.458;9.644;2023-02-28T09:13:09;8.45;;;3.33;;
38935;SDS011;66589;47.458;9.644;2023-02-28T09:15:36;7.32;;;3.60;;
38935;SDS011;66589;47.458;9.644;2023-02-28T09:18:03;7.45;;;3.28;;
38935;SDS011;66589;47.458;9.644;2023-02-28T09:20:29;8.88;;;3.60;;
38935;SDS011;66589;47.458;9.644;2023-02-28T09:22:54;8.07;;;3.97;;
38935;SDS011;66589;47.458;9.644;2023-02-28T09:25:20;8.88;;;3.72;;
38935;SDS011;66589;47.458;9.644;2023-02-28T09:27:46;8.63;;;3.63;;
38935;SDS011;66589;47.458;9.644;2023-02-28T09:30:11;20.02;;;4.28;;
38935;SDS011;66589;47.458;9.644;2023-02-28T09:32:38;9.75;;;3.63;;
38935;SDS011;66589;47.458;9.644;2023-02-28T09:35:04;8.48;;;3.25;;
38935;SDS011;66589;47.458;9.644;2023-02-28T09:37:30;6.40;;;3.47;;
38935;SDS011;66589;47.458;9.644;2023-02-28T09:39:56;7.40;;;3.20;;
38935;SDS011;66589;47.458;9.644;2023-02-28T09:42:25;9.02;;;3.40;;
38935;SDS011;66589;47.458;9.644;2023-02-28T09:44:57;11.90;;;3.95;;
38935;SDS011;66589;47.458;9.644;2023-02-28T09:47:35;6.30;;;3.70;;
38935;SDS011;66589;47.458;9.644;2023-02-28T09:50:11;6.88;;;3.80;;
38935;SDS011;66589;47.458;9.644;2023-02-28T09:52:51;8.02;;;4.15;;
38935;SDS011;66589;47.458;9.644;2023-02-28T09:57:45;9.82;;;4.43;;
38935;SDS011;66589;47.458;9.644;2023-02-28T10:05:49;6.53;;;3.95;;
38935;SDS011;66589;47.458;9.644;2023-02-28T10:08:23;8.80;;;4.30;;
38935;SDS011;66589;47.458;9.644;2023-02-28T10:10:55;7.13;;;4.18;;
38935;SDS011;66589;47.458;9.644;2023-02-28T10:22:15;6.20;;;3.63;;
38935;SDS011;66589;47.458;9.644;2023-02-28T10:24:50;8.00;;;3.65;;
38935;SDS011;66589;47.458;9.644;2023-02-28T10:27:22;7.05;;;4.53;;
38935;SDS011;66589;47.458;9.644;2023-02-28T10:29:50;8.95;;;4.60;;
38935;SDS011;66589;47.458;9.644;2023-02-28T10:32:18;7.95;;;4.97;;
38935;SDS011;66589;47.458;9.644;2023-02-28T10:35:28;7.85;;;4.93;;
38935;SDS011;66589;47.458;9.644;2023-02-28T10:37:38;8.55;;;5.40;;
38935;SDS011;66589;47.458;9.644;2023-02-28T10:40:06;6.90;;;5.10;;
38935;SDS011;66589;47.458;9.644;2023-02-28T10:45:21;8.07;;;4.47;;
38935;SDS011;66589;47.458;9.644;2023-02-28T10:47:58;8.25;;;4.70;;
38935;SDS011;66589;47.458;9.644;2023-02-28T10:55:58;5.88;;;4.00;;
38935;SDS011;66589;47.458;9.644;2023-02-28T10:58:31;8.45;;;5.22;;
38935;SDS011;66589;47.458;9.644;2023-02-28T11:01:34;6.78;;;4.18;;
38935;SDS011;66589;47.458;9.644;2023-02-28T11:04:20;7.90;;;4.18;;
38935;SDS011;66589;47.458;9.644;2023-02-28T11:09:50;7.15;;;4.18;;
38935;SDS011;66589;47.458;9.644;2023-02-28T11:15:04;7.53;;;4.22;;
38935;SDS011;66589;47.458;9.644;2023-02-28T11:17:43;8.52;;;4.38;;
38935;SDS011;66589;47.458;9.644;2023-02-28T11:20:10;8.95;;;4.32;;
38935;SDS011;66589;47.458;9.644;2023-02-28T11:22:45;8.55;;;4.28;;
38935;SDS011;66589;47.458;9.644;2023-02-28T11:25:17;10.25;;;4.85;;
38935;SDS011;66589;47.458;9.644;2023-02-28T11:27:50;8.52;;;4.70;;
38935;SDS011;66589;47.458;9.644;2023-02-28T11:32:52;8.48;;;4.10;;
38935;SDS011;66589;47.458;9.644;2023-02-28T11:35:21;7.72;;;4.15;;
38935;SDS011;66589;47.458;9.644;2023-02-28T11:37:48;9.40;;;4.97;;
38935;SDS011;66589;47.458;9.644;2023-02-28T11:40:36;8.68;;;4.20;;
38935;SDS011;66589;47.458;9.644;2023-02-28T11:49:01;10.95;;;4.57;;
38935;SDS011;66589;47.458;9.644;2023-02-28T11:51:50;9.48;;;4.13;;
38935;SDS011;66589;47.458;9.644;2023-02-28T11:57:30;13.02;;;5.18;;
38935;SDS011;66589;47.458;9.644;2023-02-28T12:02:56;7.70;;;4.30;;
38935;SDS011;66589;47.458;9.644;2023-02-28T12:05:44;6.28;;;3.72;;
38935;SDS011;66589;47.458;9.644;2023-02-28T12:19:06;9.50;;;3.70;;
38935;SDS011;66589;47.458;9.644;2023-02-28T12:26:54;6.80;;;3.92;;
38935;SDS011;66589;47.458;9.644;2023-02-28T12:29:27;8.68;;;3.70;;
38935;SDS011;66589;47.458;9.644;2023-02-28T12:37:40;12.40;;;4.35;;
38935;SDS011;66589;47.458;9.644;2023-02-28T12:40:15;7.57;;;3.75;;
38935;SDS011;66589;47.458;9.644;2023-02-28T12:42:47;8.85;;;4.20;;
38935;SDS011;66589;47.458;9.644;2023-02-28T12:47:52;8.48;;;4.15;;
38935;SDS011;66589;47.458;9.644;2023-02-28T12:50:23;9.18;;;4.55;;
38935;SDS011;66589;47.458;9.644;2023-02-28T13:09:03;7.68;;;3.92;;
38935;SDS011;66589;47.458;9.644;2023-02-28T13:14:16;8.40;;;4.20;;
38935;SDS011;66589;47.458;9.644;2023-02-28T13:19:46;8.52;;;4.20;;
38935;SDS011;66589;47.458;9.644;2023-02-28T13:22:43;7.70;;;4.25;;
38935;SDS011;66589;47.458;9.644;2023-02-28T13:27:57;7.53;;;3.90;;
38935;SDS011;66589;47.458;9.644;2023-02-28T13:38:43;8.50;;;4.35;;
38935;SDS011;66589;47.458;9.644;2023-02-28T13:46:36;9.82;;;4.65;;
38935;SDS011;66589;47.458;9.644;2023-02-28T13:57:27;8.75;;;4.15;;
38935;SDS011;66589;47.458;9.644;2023-02-28T14:03:01;10.07;;;4.55;;
38935;SDS011;66589;47.458;9.644;2023-02-28T14:05:46;9.13;;;4.53;;
38935;SDS011;66589;47.458;9.644;2023-02-28T14:08:30;8.38;;;4.45;;
38935;SDS011;66589;47.458;9.644;2023-02-28T14:11:03;9.52;;;4.38;;
38935;SDS011;66589;47.458;9.644;2023-02-28T14:13:39;7.90;;;4.30;;
38935;SDS011;66589;47.458;9.644;2023-02-28T14:16:17;7.22;;;3.83;;
38935;SDS011;66589;47.458;9.644;2023-02-28T14:18:50;7.80;;;4.00;;
38935;SDS011;66589;47.458;9.644;2023-02-28T14:37:46;11.95;;;4.28;;
38935;SDS011;66589;47.458;9.644;2023-02-28T14:40:17;10.27;;;4.90;;
38935;SDS011;66589;47.458;9.644;2023-02-28T14:43:04;8.88;;;4.32;;
38935;SDS011;66589;47.458;9.644;2023-02-28T14:45:42;8.73;;;4.93;;
38935;SDS011;66589;47.458;9.644;2023-02-28T14:48:09;9.52;;;5.18;;
38935;SDS011;66589;47.458;9.644;2023-02-28T14:50:36;9.30;;;5.30;;
38935;SDS011;66589;47.458;9.644;2023-02-28T14:53:02;14.90;;;6.03;;
38935;SDS011;66589;47.458;9.644;2023-02-28T14:55:32;14.60;;;5.90;;
38935;SDS011;66589;47.458;9.644;2023-02-28T14:58:03;10.07;;;4.22;;
38935;SDS011;66589;47.458;9.644;2023-02-28T15:00:35;8.30;;;4.85;;
38935;SDS011;66589;47.458;9.644;2023-02-28T15:03:17;8.55;;;4.40;;
38935;SDS011;66589;47.458;9.644;2023-02-28T15:05:47;9.98;;;4.78;;
38935;SDS011;66589;47.458;9.644;2023-02-28T15:18:47;9.80;;;4.97;;
38935;SDS011;66589;47.458;9.644;2023-02-28T15:21:18;12.98;;;5.35;;
38935;SDS011;66589;47.458;9.644;2023-02-28T15:23:45;10.43;;;4.90;;
38935;SDS011;66589;47.458;9.644;2023-02-28T15:26:19;12.38;;;4.97;;
38935;SDS011;66589;47.458;9.644;2023-02-28T15:28:49;11.90;;;5.47;;
38935;SDS011;66589;47.458;9.644;2023-02-28T15:31:27;12.77;;;6.40;;
38935;SDS011;66589;47.458;9.644;2023-02-28T15:33:57;11.10;;;5.57;;
38935;SDS011;66589;47.458;9.644;2023-02-28T15:36:29;14.20;;;6.07;;
38935;SDS011;66589;47.458;9.644;2023-02-28T15:38:58;13.85;;;5.95;;
38935;SDS011;66589;47.458;9.644;2023-02-28T15:41:35;11.73;;;5.72;;
38935;SDS011;66589;47.458;9.644;2023-02-28T15:44:22;10.82;;;5.22;;
38935;SDS011;66589;47.458;9.644;2023-02-28T15:47:04;11.07;;;5.50;;
38935;SDS011;66589;47.458;9.644;2023-02-28T15:49:48;12.60;;;5.72;;
38935;SDS011;66589;47.458;9.644;2023-02-28T15:52:17;11.40;;;5.18;;
38935;SDS011;66589;47.458;9.644;2023-02-28T15:54:47;15.05;;;5.55;;
38935;SDS011;66589;47.458;9.644;2023-02-28T15:57:31;13.00;;;5.70;;
38935;SDS011;66589;47.458;9.644;2023-02-28T16:00:00;11.65;;;5.93;;
38935;SDS011;66589;47.458;9.644;2023-02-28T16:02:38;13.85;;;6.18;;
38935;SDS011;66589;47.458;9.644;2023-02-28T16:07:33;13.68;;;5.72;;
38935;SDS011;66589;47.458;9.644;2023-02-28T16:10:03;12.73;;;5.80;;
38935;SDS011;66589;47.458;9.644;2023-02-28T16:12:30;11.90;;;5.72;;
38935;SDS011;66589;47.458;9.644;2023-02-28T16:14:59;12.68;;;5.93;;
38935;SDS011;66589;47.458;9.644;2023-02-28T16:17:30;16.17;;;6.13;;
38935;SDS011;66589;47.458;9.644;2023-02-28T16:19:59;12.75;;;5.93;;
38935;SDS011;66589;47.458;9.644;2023-02-28T16:22:25;13.88;;;6.68;;
38935;SDS011;66589;47.458;9.644;2023-02-28T16:24:51;11.05;;;5.75;;
38935;SDS011;66589;47.458;9.644;2023-02-28T16:27:28;11.43;;;5.60;;
38935;SDS011;66589;47.458;9.644;2023-02-28T16:29:56;14.80;;;6.50;;
38935;SDS011;66589;47.458;9.644;2023-02-28T16:32:22;14.55;;;6.50;;
38935;SDS011;66589;47.458;9.644;2023-02-28T16:34:47;13.52;;;6.20;;
38935;SDS011;66589;47.458;9.644;2023-02-28T16:37:14;12.75;;;6.22;;
38935;SDS011;66589;47.458;9.644;2023-02-28T16:39:42;9.93;;;5.40;;
38935;SDS011;66589;47.458;9.644;2023-02-28T16:42:15;13.32;;;6.15;;
38935;SDS011;66589;47.458;9.644;2023-02-28T16:44:52;18.80;;;6.72;;
38935;SDS011;66589;47.458;9.644;2023-02-28T16:47:18;14.57;;;6.40;;
38935;SDS011;66589;47.458;9.644;2023-02-28T16:49:44;13.32;;;6.57;;
38935;SDS011;66589;47.458;9.644;2023-02-28T16:52:10;14.35;;;7.00;;
38935;SDS011;66589;47.458;9.644;2023-02-28T16:54:37;16.02;;;6.57;;
38935;SDS011;66589;47.458;9.644;2023-02-28T16:57:03;13.40;;;6.75;;
38935;SDS011;66589;47.458;9.644;2023-02-28T16:59:31;14.55;;;6.93;;
38935;SDS011;66589;47.458;9.644;2023-02-28T17:01:57;12.50;;;6.30;;
38935;SDS011;66589;47.458;9.644;2023-02-28T17:04:26;14.13;;;6.55;;
38935;SDS011;66589;47.458;9.644;2023-02-28T17:06:52;14.23;;;6.55;;
38935;SDS011;66589;47.458;9.644;2023-02-28T17:09:19;15.00;;;7.03;;
38935;SDS011;66589;47.458;9.644;2023-02-28T17:11:46;14.35;;;7.07;;
38935;SDS011;66589;47.458;9.644;2023-02-28T17:14:13;22.30;;;8.93;;
38935;SDS011;66589;47.458;9.644;2023-02-28T17:16:40;16.42;;;7.30;;
38935;SDS011;66589;47.458;9.644;2023-02-28T17:19:09;17.35;;;7.75;;
38935;SDS011;66589;47.458;9.644;2023-02-28T17:21:40;14.88;;;7.15;;
38935;SDS011;66589;47.458;9.644;2023-02-28T17:24:07;16.75;;;7.75;;
38935;SDS011;66589;47.458;9.644;2023-02-28T17:26:34;16.17;;;7.18;;
38935;SDS011;66589;47.458;9.644;2023-02-28T17:28:59;16.77;;;7.47;;
38935;SDS011;66589;47.458;9.644;2023-02-28T17:31:25;18.63;;;7.53;;
38935;SDS011;66589;47.458;9.644;2023-02-28T17:33:52;16.13;;;7.65;;
38935;SDS011;66589;47.458;9.644;2023-02-28T17:36:23;15.93;;;7.50;;
38935;SDS011;66589;47.458;9.644;2023-02-28T17:38:51;15.93;;;7.65;;
38935;SDS011;66589;47.458;9.644;2023-02-28T17:41:18;18.38;;;8.02;;
38935;SDS011;66589;47.458;9.644;2023-02-28T17:43:44;16.10;;;7.30;;
38935;SDS011;66589;47.458;9.644;2023-02-28T17:46:16;16.25;;;7.20;;
38935;SDS011;66589;47.458;9.644;2023-02-28T17:48:45;14.27;;;6.93;;
38935;SDS011;66589;47.458;9.644;2023-02-28T17:51:15;17.13;;;8.02;;
38935;SDS011;66589;47.458;9.644;2023-02-28T17:53:41;21.58;;;9.02;;
38935;SDS011;66589;47.458;9.644;2023-02-28T17:56:15;19.77;;;9.15;;
38935;SDS011;66589;47.458;9.644;2023-02-28T17:58:45;19.13;;;9.07;;
38935;SDS011;66589;47.458;9.644;2023-02-28T18:01:11;15.68;;;7.60;;
38935;SDS011;66589;47.458;9.644;2023-02-28T18:03:37;16.63;;;7.57;;
38935;SDS011;66589;47.458;9.644;2023-02-28T18:06:07;14.70;;;7.38;;
38935;SDS011;66589;47.458;9.644;2023-02-28T18:08:41;16.50;;;7.50;;